Tiempo atmosférico en la estación meteorológica de Albacete, Albacete (674 m.)



Fecha
DESCASC
Temp. máxima en grados centígrados (hora)
DESCASC
Temp. mínima en grados centígrados (hora)
DESCASC
Temp. media en grados centígrados
DESCASC
Racha de viento máxima en m/sg (hora)
DESCASC
Velocidad máxima media en intervalos de 10 minutos(hora)
DESCASC
Precipitaciones diarias en mm
DESCASC
Precipitaciones de 00:00 a 06:00 en mm
DESCASC
Precipitaciones de 06:00 a 12:00 en mm
DESCASC
Precipitaciones de 12:00 a 18:00 en mm
DESCASC
Precipitaciones de 18:00 a 24:00 en mm
DESCASC
25-04-2019 13.4 (03:30) 8.7 (23:59) 11 11.67 (11:50) 4.72 (12:30) 5.9 0 5.3 0.5 0.1
24-04-2019 18.4 (17:20) 4.4 (05:00) 11.4 11.39 (16:30) 4.44 (16:10) 0 0 0 0 0
23-04-2019 13.9 (17:40) 5.5 (23:59) 9.7 12.5 (19:00) 5 (18:00) 1.5 0 0.4 1.1 0
22-04-2019 14.5 (18:50) 7.7 (00:00) 11.1 8.89 (15:20) 3.06 (18:40) 6.1 6 0 0.1 0
21-04-2019 10.1 (13:00) 7.4 (00:00) 8.8 6.67 (15:00) 1.94 (15:00) 22 0 0 1.5 20.5
20-04-2019 11.1 (18:00) 7.3 (00:00) 9.2 18.89 (10:50) 6.39 (09:00) 16 15.8 0.2 0 0
19-04-2019 9.9 (12:30) 7.3 (00:00) 8.6 4.17 (12:10) 1.11 (13:40) 45.4 0 4.3 20.8 20.3
18-04-2019 11.9 (01:00) 7.7 (00:00) 9.8 8.33 (13:00) 3.89 (13:00) 13.2 0 0 13.2 0
17-04-2019 21.4 (16:30) 10.4 (00:00) 15.9 10.83 (14:40) 5 (17:10) 0 0 0 0 0
16-04-2019 23.6 (17:50) 8.9 (00:00) 16.3 8.06 (00:30) 3.33 (19:50) 0 0 0 0 0
15-04-2019 25.8 (16:20) 11.4 (00:00) 18.6 12.5 (17:30) 5 (17:20) 0 0 0 0 0
14-04-2019 24.3 (17:30) 7.5 (00:00) 15.9 7.22 (12:40) 3.61 (18:40) 0 0 0 0 0
13-04-2019 21 (17:40) 3.8 (00:00) 12.4 8.06 (15:30) 2.78 (14:20) 0 0 0 0 0
12-04-2019 17.6 (18:00) 2.7 (00:00) 10.2 10.28 (18:30) 3.61 (15:40) 0 0 0 0 0
11-04-2019 16.8 (17:10) 2.7 (00:00) 9.7 9.44 (13:00) 3.33 (17:00) 0 0 0 0 0
10-04-2019 13.6 (14:50) 6.1 (00:00) 9.9 11.94 (15:40) 3.89 (02:20) 2.3 2.3 0 0 0
09-04-2019 13.9 (16:00) 5.8 (00:00) 9.8 13.33 (16:30) 6.67 (16:30) 1 0 0.1 0.2 0.7
08-04-2019 16.1 (14:40) 8.7 (00:00) 12.4 13.06 (17:40) 5.56 (12:10) 8.5 0 0.1 5.2 3.2
07-04-2019 14.1 (17:20) 4.4 (00:00) 9.3 13.89 (10:40) 5 (05:40) 0.8 0.7 0.1 0 0
06-04-2019 10.1 (17:50) 4 (00:00) 7.1 17.78 (15:40) 7.5 (13:20) 1.6 0.1 0 1.4 0.1
05-04-2019 12.1 (12:30) 4.5 (00:00) 8.3 16.94 (19:40) 6.11 (19:40) 2.1 0 0 1.2 0.9
04-04-2019 15.3 (17:50) 2.5 (00:00) 8.9 6.39 (23:20) 2.22 (14:10) 0 0 0 0 0
03-04-2019 18.9 (17:00) 7.7 (00:00) 13.3 11.94 (17:40) 5.56 (14:40) 0.1 0 0.1 0 0
02-04-2019 17.7 (17:30) 6.6 (00:00) 12.2 10 (20:30) 2.5 (18:20) 10.7 0.8 0.1 0.2 9.6
01-04-2019 15.4 (14:30) 8.4 (00:00) 11.9 6.39 (17:30) 2.22 (17:40) 12.9 1.1 0.2 11.1 0.5
31-03-2019 9 (19:00) 6.2 (00:00) 7.6 7.5 (20:10) 3.06 (04:30) 19 0.5 12.2 6.2 0.1
30-03-2019 19.2 (15:40) 4.1 (00:00) 11.7 8.33 (18:00) 2.78 (10:20) 0 0 0 0 0
29-03-2019 16.5 (15:30) 0.4 (00:00) 8.5 8.33 (17:00) 3.33 (13:30) 0 0 0 0 0
28-03-2019 19.4 (15:10) -0.6 (-00:0) 9.4 8.33 (12:30) 2.78 (17:40) 0 0 0 0 0
27-03-2019 18.1 (15:20) 0.6 (00:00) 9.4 8.61 (16:50) 3.33 (17:10) 0 0 0 0 0

Gráficas

Temp. máximas Temp. mínimas Temp. medias Precipitaciones Rachas de viento máximas Velocidades máximas media en intervalos de 10 minutos

Datos horarios

Fecha y hora oficial Temperatura (ºC) Velocidad del viento (km/h) Dirección del viento Racha (km/h) Dirección de racha Precipitación (mm) Presión (hPa) Tendencia (hPa) Humedad (%)
2019-04-25 23:00:00 9.1 6 Oeste 21 Oeste 0 940.7 3 64
2019-04-25 22:00:00 10.2 3 Oeste 18 Oeste 0 939.6 2.5 68
2019-04-25 21:00:00 10.7 8 Oeste 26 Oeste 0 938.6 2.3 63
2019-04-25 20:00:00 12.5 14 Oeste 31 Oeste 0 937.7 1.9 55
2019-04-25 19:00:00 11.4 4 Oeste 24 Oeste 0.1 937.1 0.9 73
2019-04-25 18:00:00 11.8 7 Sudoeste 26 Noroeste 0.2 936.3 -0.4 72
2019-04-25 17:00:00 13.2 5 Oeste 23 Sur 0 935.8 -1 60
2019-04-25 16:00:00 12 8 Sudoeste 27 Sur 0 936.2 -1 70
2019-04-25 15:00:00 10.1 6 Sudoeste 21 Sur 0.1 936.7 -0.2 87
2019-04-25 14:00:00 10.1 7 Sudoeste 19 Noroeste 0.1 936.8 1.1 86
2019-04-25 13:00:00 10.2 8 Oeste 36 Oeste 0.1 937.2 2.5 81
2019-04-25 12:00:00 9.6 13 Oeste 42 Oeste 0.3 936.9 2.7 84
2019-04-25 11:00:00 8.9 11 Oeste 28 Oeste 2 935.7 2.1 95
2019-04-25 10:00:00 9.5 3 Oeste 17 Oeste 0.9 934.7 1.8 95
2019-04-25 09:00:00 9.5 3 Sudoeste 10 Oeste 0.5 934.2 2.3 95
2019-04-25 08:00:00 9.4 3 Oeste 14 Oeste 0.8 933.6 1.8 93
2019-04-25 07:00:00 10.4 4 Oeste 35 Oeste 0.8 932.9 0.8 90
2019-04-25 06:00:00 13 15 Sudoeste 36 Oeste 0 931.9 -0.1 68
2019-04-25 05:00:00 13.2 9 Sudoeste 38 Sur 0 931.8 -0.9 65
2019-04-25 04:00:00 12.9 5 Sudoeste 25 Sudoeste 0 932.1 -0.9 64
2019-04-25 03:00:00 12.6 5 Sudoeste 18 Sudoeste 0 932 -0.9 66
2019-04-25 02:00:00 12.8 5 Sudoeste 23 Oeste 0 932.7 -0.2 64
2019-04-25 01:00:00 13 8 Sudoeste 19 Sudoeste 0 933 0.1 63
2019-04-25 00:00:00 12.8 4 Sudoeste 15 Sudoeste 0 932.9 0.9 62
2019-04-24 23:00:00 13.2 4 Sur 12 Sudoeste 0 932.9 1.7 57
2019-04-24 22:00:00 14.3 8 Sudoeste 23 Oeste 0 932.9 2 50
2019-04-24 21:00:00 15.2 8 Sudoeste 26 Sudoeste 0 932 1.3 45
2019-04-24 20:00:00 16.8 9 Sudoeste 32 Sudoeste 0 931.2 0.4 40
2019-04-24 19:00:00 17.2 14 Sudoeste 40 Oeste 0 930.9 -0.5 39
2019-04-24 18:00:00 18 14 Oeste 40 Sudoeste 0 930.7 -0.9 39
2019-04-24 17:00:00 17.8 13 Oeste 41 Sudoeste 0 930.8 -0.9 40
2019-04-24 16:00:00 16.6 14 Sudoeste 35 Sudoeste 0 931.4 -0.6 41
2019-04-24 15:00:00 16.2 9 Sudoeste 31 Sudoeste 0 931.6 -0.5 43
2019-04-24 14:00:00 14.5 10 Sudoeste 28 Sudoeste 0 931.7 -0.4 46
2019-04-24 13:00:00 13.3 9 Sudoeste 27 Oeste 0 932 0.4 49
2019-04-24 12:00:00 11.8 8 Sudoeste 30 Oeste 0 932.1 0.8 49
2019-04-24 11:00:00 10 12 Sudoeste 34 Oeste 0 932.1 1.7 57
2019-04-24 10:00:00 8.5 9 Sudoeste 32 Sudoeste 0 931.6 1.6 67
2019-04-24 09:00:00 6.5 9 Sudoeste 22 Sudoeste 0 931.3 1.8 77
2019-04-24 08:00:00 4.9 5 Sudoeste 12 Sudoeste 0 930.4 0.9 84
2019-04-24 07:00:00 4.7 3 Sudoeste 11 Sudoeste 0 930 1 85
2019-04-24 06:00:00 4.5 2 Sudoeste 12 Sudoeste 0 929.5 0.8 84
2019-04-24 05:00:00 4.5 5 Sudoeste 17 Sudoeste 0 929.5 0.8 83
2019-04-24 04:00:00 5.1 5 Sudoeste 17 Oeste 0 929 0.2 82
2019-04-24 03:00:00 4.9 4 Sudoeste 16 Sudoeste 0 928.7 0.8 82
2019-04-24 02:00:00 5.1 5 Oeste 22 Oeste 0 928.7 1.3 81
2019-04-24 01:00:00 5.1 7 Sudoeste 19 Sudoeste 0 928.8 2.2 80
2019-04-24 00:00:00 5.5 7 Oeste 30 Sudoeste 0 927.9 2.6 78
2019-04-23 23:00:00 6.6 7 Oeste 23 Oeste 0 927.4 3 77
2019-04-23 22:00:00 7.4 12 Oeste 27 Oeste 0 926.6 3 69
2019-04-23 21:00:00 8.8 9 Oeste 33 Oeste 0 925.3 2.4 59
2019-04-23 20:00:00 10 12 Oeste 42 Oeste 0 924.4 1.6 50
2019-04-23 19:00:00 12 13 Oeste 45 Sudoeste 0 923.6 0.7 46
2019-04-23 18:00:00 13.1 18 Oeste 40 Noroeste 0 922.9 0 45
2019-04-23 17:00:00 12.8 12 Oeste 35 Oeste 0 922.8 -0.4 50
2019-04-23 16:00:00 11.8 11 Oeste 27 Oeste 0 922.9 -0.6 60
2019-04-23 15:00:00 12.1 8 Oeste 30 Sudoeste 0 922.9 0 63
2019-04-23 14:00:00 11.6 10 Oeste 28 Oeste 0.4 923.2 0.7 72
2019-04-23 13:00:00 11.2 7 Oeste 19 Oeste 0.7 923.5 1 77
2019-04-23 12:00:00 12.2 2 Sudeste 10 Sur 0 922.9 0.4 70
2019-04-23 11:00:00 12.4 2 Sudoeste 11 Oeste 0 922.5 0.1 71
2019-04-23 10:00:00 10.9 0 Calma 14 Oeste 0.4 922.5 0.5 80
2019-04-23 09:00:00 11.4 4 Sudoeste 18 Sudoeste 0 922.5 0.5 70
2019-04-23 08:00:00 10.7 7 Sudoeste 26 Sudoeste 0 922.4 0.1 72
2019-04-23 07:00:00 10.7 13 Oeste 30 Sudoeste 0 922 -0.5 72
2019-04-23 06:00:00 10.7 7 Oeste 30 Sudoeste 0 922 -0.9 70
2019-04-23 05:00:00 10.5 6 Sudoeste 22 Sudoeste 0 922.3 -1 71
2019-04-23 04:00:00 10.7 4 Sudoeste 15 Sur 0 922.5 -1.2 73
2019-04-23 03:00:00 11 3 Sudoeste 13 Sudoeste 0 922.9 -1.2 74
2019-04-23 02:00:00 11.2 5 Sudoeste 14 Sudoeste 0 923.3 -1 73
2019-04-23 01:00:00 11 2 Sur 8 Sur 0 923.7 -0.6 73
2019-04-23 00:00:00 11.1 4 Sudoeste 10 Sudoeste 0 924.1 0.2 73
2019-04-22 23:00:00 11.2 2 Sudoeste 11 Sudoeste 0 924.3 0.2 74
2019-04-22 22:00:00 11.9 5 Sudoeste 23 Oeste 0 924.3 0.5 71
2019-04-22 21:00:00 12.6 6 Oeste 16 Sur 0 923.9 0 70
2019-04-22 20:00:00 13.1 5 Oeste 21 Oeste 0 924.1 -0.1 67
2019-04-22 19:00:00 14.1 9 Oeste 27 Sudoeste 0 923.8 -0.9 61
2019-04-22 18:00:00 14.1 9 Oeste 26 Oeste 0 923.9 -1.2 60
2019-04-22 17:00:00 13.5 8 Oeste 26 Oeste 0 924.2 -1.1 63
2019-04-22 16:00:00 13.4 8 Oeste 32 Oeste 0 924.7 -0.9 61
2019-04-22 15:00:00 13.3 9 Oeste 26 Oeste 0 925.1 -0.8 64
2019-04-22 14:00:00 13.2 9 Oeste 30 Oeste 0.1 925.3 -0.7 63
2019-04-22 13:00:00 12.8 8 Oeste 27 Oeste 0 925.6 -0.5 67
2019-04-22 12:00:00 11.4 5 Oeste 22 Oeste 0 925.9 -0.1 77
2019-04-22 11:00:00 10.4 5 Noroeste 26 Oeste 0 926 0 84
2019-04-22 10:00:00 9.1 5 Oeste 21 Oeste 0 926.1 0.1 97
2019-04-22 09:00:00 8.3 4 Oeste 18 Oeste 0 926 -0.3 97
2019-04-22 08:00:00 7.9 4 Oeste 14 Oeste 0 926 -0.7 97
2019-04-22 07:00:00 7.8 4 Oeste 18 Oeste 0 926 -1.4 97
2019-04-22 06:00:00 7.9 3 Oeste 13 Oeste 0 926.3 -1.8 97
2019-04-22 05:00:00 7.8 4 Oeste 15 Oeste 0.6 926.7 -2.4 97
2019-04-22 04:00:00 7.9 0 Calma 14 Noroeste 0.7 927.4 -2.2 97
2019-04-22 03:00:00 7.9 2 Noroeste 11 Oeste 1.2 928.1 -1.9 97
2019-04-22 02:00:00 7.9 2 Noroeste 14 Oeste 1.2 929.1 -1.7 96
2019-04-22 01:00:00 8.2 2 Oeste 10 Oeste 2.3 929.6 -1.3 96
2019-04-22 00:00:00 7.9 0 Calma 9 Norte 4.9 930 -0.7 97
2019-04-21 23:00:00 8.1 0 Calma 6 Noroeste 4.8 930.8 0.3 96
2019-04-21 22:00:00 8.4 0 Calma 5 Noroeste 3.4 930.9 0.7 96
2019-04-21 21:00:00 8.5 0 Calma 5 Noroeste 3.8 930.7 0.2 96
2019-04-21 20:00:00 8.9 0 Calma 9 Noroeste 3 930.5 -0.2 95
2019-04-21 19:00:00 9 0 Calma 10 Norte 0.6 930.2 -1.1 93
2019-04-21 18:00:00 9.3 0 Calma 14 Norte 0.7 930.5 -0.9 91
2019-04-21 17:00:00 9.2 4 Norte 19 Noroeste 0.5 930.7 -1.1 89
2019-04-21 16:00:00 9.3 2 Nordeste 24 Norte 0 931.3 -0.9 85
2019-04-21 15:00:00 9.3 7 Nordeste 24 Nordeste 0 931.4 -1.3 84
2019-04-21 14:00:00 9.7 4 Nordeste 17 Norte 0.3 931.8 -1.2 79
2019-04-21 13:00:00 10.1 4 Nordeste 16 Norte 0 932.2 -0.9 74
2019-04-21 12:00:00 9.4 5 Nordeste 14 Este 0 932.7 -0.4 77
2019-04-21 11:00:00 9 0 Calma 11 Noroeste 0 933 -0.4 77
2019-04-21 10:00:00 8.2 0 Calma 10 Norte 0 933.1 -0.1 81
2019-04-21 09:00:00 7.6 2 Norte 9 Norte 0 933.1 -0.8 84
2019-04-21 08:00:00 7.4 0 Calma 8 Oeste 0 933.4 -0.9 84
2019-04-21 07:00:00 8.2 0 Calma 11 Este 0 933.2 -1.8 78
2019-04-21 06:00:00 8.3 2 Nordeste 13 Nordeste 0 933.9 -2 75
2019-04-21 05:00:00 8.4 4 Nordeste 12 Este 0 934.3 -2.4 73
2019-04-21 04:00:00 8.3 0 Calma 6 Norte 0 935 -2.1 77
2019-04-21 03:00:00 8.4 0 Calma 8 Norte 0 935.9 -1.7 76
2019-04-21 02:00:00 8.7 2 Nordeste 13 Nordeste 0 936.7 -1.3 75
2019-04-21 01:00:00 8.8 2 Nordeste 15 Nordeste 0 937.1 -0.7 72
2019-04-21 00:00:00 9.1 6 Nordeste 19 Norte 0 937.6 0.2 70
2019-04-20 23:00:00 9.2 5 Nordeste 16 Nordeste 0 938 0.7 70
2019-04-20 22:00:00 9.4 2 Nordeste 14 Norte 0 937.8 0.4 69
2019-04-20 21:00:00 9.9 5 Nordeste 24 Sudeste 0 937.4 0.3 67
2019-04-20 20:00:00 10.6 6 Nordeste 30 Este 0 937.3 0.2 65
2019-04-20 19:00:00 10.7 7 Nordeste 36 Nordeste 0 937.4 -0.3 66
2019-04-20 18:00:00 10.8 8 Nordeste 36 Nordeste 0 937.1 -0.4 69
2019-04-20 17:00:00 10.3 13 Nordeste 42 Este 0 937.1 0.7 68
2019-04-20 16:00:00 10 17 Este 46 Este 0 937.7 1 76
2019-04-20 15:00:00 10.2 16 Este 50 Este 0 937.5 0.8 78
2019-04-20 14:00:00 10.7 16 Este 62 Nordeste 0 936.4 0.3 74
2019-04-20 13:00:00 10.9 19 Este 49 Este 0 936.7 1 68
2019-04-20 12:00:00 10.1 19 Este 51 Nordeste 0 936.7 1.5 73
2019-04-20 11:00:00 9.9 21 Nordeste 68 Nordeste 0 936.1 0.6 71
2019-04-20 10:00:00 10.1 22 Nordeste 58 Nordeste 0.1 935.7 1.2 69
2019-04-20 09:00:00 10.4 23 Nordeste 54 Nordeste 0 935.2 0.9 65
2019-04-20 08:00:00 10 15 Nordeste 40 Este 0 935.5 -0.1 65
2019-04-20 07:00:00 9.9 14 Nordeste 54 Nordeste 0.1 934.5 -1.4 69
2019-04-20 06:00:00 9.7 17 Nordeste 51 Este 0 934.3 -2.8 82
2019-04-20 05:00:00 9.3 13 Nordeste 39 Este 0 935.6 -2.6 91
2019-04-20 04:00:00 9 7 Nordeste 27 Nordeste 0.4 935.9 -3.5 97
2019-04-20 03:00:00 8.9 3 Nordeste 19 Nordeste 2.3 937.1 -2.9 97
2019-04-20 02:00:00 7.5 4 Noroeste 15 Oeste 6.1 938.2 -1.6 97
2019-04-20 01:00:00 7.4 0 Calma 14 Oeste 7 939.4 0.1 97
2019-04-20 00:00:00 7.4 0 Calma 6 Noroeste 6.5 940 0.5 97
2019-04-19 23:00:00 7.5 0 Calma 12 Este 3.1 939.8 1.1 97
2019-04-19 22:00:00 7.6 0 Calma 10 Oeste 1.2 939.3 0.7 96
2019-04-19 21:00:00 7.7 0 Calma 7 Oeste 2.9 939.5 1.2 96
2019-04-19 20:00:00 8 0 Calma 8 Noroeste 3 938.7 0.8 97
2019-04-19 19:00:00 8.4 0 Calma 9 Oeste 3.6 938.6 0.7 97
2019-04-19 18:00:00 8.5 0 Calma 9 Este 4.5 938.3 0.8 97
2019-04-19 17:00:00 8.8 0 Calma 9 Norte 4.7 937.9 0.3 96
2019-04-19 16:00:00 9.1 0 Calma 9 Este 3.9 937.9 0.4 96
2019-04-19 15:00:00 9.1 3 Nordeste 10 Nordeste 3.5 937.5 0 95
2019-04-19 14:00:00 9.7 0 Calma 10 Nordeste 3.6 937.6 -0.3 94
2019-04-19 13:00:00 9.7 2 Este 15 Sudeste 0.6 937.5 0 94
2019-04-19 12:00:00 9.7 4 Sudeste 12 Sudeste 1.4 937.5 0.3 97
2019-04-19 11:00:00 9 0 Calma 6 Nordeste 2.2 937.9 0.8 97
2019-04-19 10:00:00 8.7 0 Calma 6 Este 0.4 937.5 1.3 97
2019-04-19 09:00:00 8.4 0 Calma 5 Este 0.2 937.2 1.4 97
2019-04-19 08:00:00 8.1 0 Calma 6 Este 0.1 937.1 1 97
2019-04-19 07:00:00 7.9 0 Calma 8 Este 0 936.2 0.5 97
2019-04-19 06:00:00 7.8 0 Calma 5 Este 0 935.8 -0.2 97
2019-04-19 05:00:00 8 0 Calma 5 Este 0 936.1 0.1 97
2019-04-19 04:00:00 8 0 Calma -- -- 0 935.7 -0.2 97
2019-04-19 03:00:00 7.8 0 Calma 4 Este 0 936 0.1 97
2019-04-19 02:00:00 7.4 0 Calma 4 Este 0 936 0.5 97
2019-04-19 01:00:00 7.3 0 Calma -- -- 0 935.9 0.7 97
2019-04-19 00:00:00 7.7 0 Calma 5 Este 0 935.9 2 97
2019-04-18 23:00:00 8.2 0 Calma 0 Calma 0 935.5 1.5 96
2019-04-18 22:00:00 8.5 0 Calma 5 Nordeste 0 935.2 1.3 94
2019-04-18 21:00:00 9.6 0 Calma 7 Este 0 933.9 0 91
2019-04-18 20:00:00 10.6 0 Calma 9 Nordeste 0 934 0.6 90
2019-04-18 19:00:00 9.6 0 Calma 19 Este 0 933.9 -1.1 97
2019-04-18 18:00:00 9.2 3 Este 20 Este 0.2 933.9 -1.1 97
2019-04-18 17:00:00 8.7 11 Este 26 Este 1.3 933.4 -2.2 97
2019-04-18 16:00:00 9 0 Calma 9 Sudoeste 3.3 935 -0.6 97
2019-04-18 15:00:00 9 5 Oeste 15 Sudoeste 2.8 935 -0.6 97
2019-04-18 14:00:00 8.9 3 Oeste 24 Oeste 1.5 935.6 -0.2 97
2019-04-18 13:00:00 9.1 14 Oeste 30 Oeste 4.1 935.6 -0.6 95
2019-04-18 12:00:00 11.3 0 Calma 13 Norte 0 935.6 0.2 86
2019-04-18 11:00:00 11.2 2 Nordeste 9 Este 0 935.8 1 79
2019-04-18 10:00:00 11.2 0 Calma -- -- 0 936.2 1.1 81
2019-04-18 09:00:00 10.3 0 Calma 21 Este 0 935.4 0.3 88
2019-04-18 08:00:00 10.1 3 Nordeste 10 Nordeste 0 934.8 -0.4 90
2019-04-18 07:00:00 10 0 Calma 11 Nordeste 0 935.1 -1.1 92
2019-04-18 06:00:00 10 2 Nordeste 10 Nordeste 0 935.1 -1.6 91
2019-04-18 05:00:00 10.2 0 Calma 9 Este 0 935.2 -2.6 90
2019-04-18 04:00:00 10.3 0 Calma 11 Nordeste 0 936.2 -1.6 90
2019-04-18 03:00:00 10.5 3 Este 9 Este 0 936.7 -1.1 90
2019-04-18 02:00:00 11.3 0 Calma 7 Este 0 937.8 0.3 87
2019-04-18 01:00:00 11.8 0 Calma 23 Este 0 937.8 1.1 85
2019-04-18 00:00:00 11.7 7 Este 18 Este 0 937.8 2.7 86
2019-04-17 23:00:00 12.2 3 Este 29 Este 0 937.5 2.9 83
2019-04-17 22:00:00 14 2 Este 15 Este 0 936.7 2.5 73
2019-04-17 21:00:00 15.7 9 Este 29 Sudeste 0 935.1 0.9 62
2019-04-17 20:00:00 18 10 Sudeste 27 Sudeste 0 934.6 0.2 44
2019-04-17 19:00:00 19.3 13 Sudeste 35 Sudeste 0 934.2 -1.3 42
2019-04-17 18:00:00 20.4 11 Sudeste 35 Sudeste 0 934.2 -1.7 42
2019-04-17 17:00:00 20.2 15 Sudeste 31 Sudeste 0 934.4 -2.4 43
2019-04-17 16:00:00 20.3 13 Sudeste 32 Este 0 935.5 -2 42
2019-04-17 15:00:00 20.1 18 Sudeste 39 Sudeste 0 935.9 -1.9 40
2019-04-17 14:00:00 19.6 10 Sudeste 32 Sudeste 0 936.8 -1.6 45
2019-04-17 13:00:00 18.2 12 Sudeste 30 Sudeste 0 937.5 -1.1 50
2019-04-17 12:00:00 15.7 9 Sudeste 29 Sudeste 0 937.8 -1.1 60
2019-04-17 11:00:00 13.5 12 Sudeste 32 Este 0 938.4 -0.5 70
2019-04-17 10:00:00 12 13 Sudeste 30 Sudeste 0 938.6 0 76
2019-04-17 09:00:00 11.2 9 Sudeste 27 Sudeste 0 938.9 -0.1 81
2019-04-17 08:00:00 11 4 Sudeste 25 Sudeste 0 938.9 0 84
2019-04-17 07:00:00 10.9 7 Sudeste 20 Sudeste 0 938.6 -0.9 85
2019-04-17 06:00:00 10.5 6 Este 21 Nordeste 0 939 -1.1 87
2019-04-17 05:00:00 10.7 7 Este 20 Este 0 938.9 -1.4 87
2019-04-17 04:00:00 10.5 7 Este 19 Este 0 939.5 -0.8 85
2019-04-17 03:00:00 10.8 3 Este 17 Nordeste 0 940.1 -0.2 82
2019-04-17 02:00:00 11 3 Este 17 Este 0 940.3 0.2 78
2019-04-17 01:00:00 11.6 6 Este 19 Este 0 940.3 0.8 75
2019-04-17 00:00:00 12.7 5 Este 23 Nordeste 0 940.3 1.9 73
2019-04-16 23:00:00 13.6 4 Este 18 Este 0 940.1 2.7 70
2019-04-16 22:00:00 15.4 6 Este 23 Sudeste 0 939.5 2 63
2019-04-16 21:00:00 17.6 9 Sudeste 29 Sudeste 0 938.4 0.5 51
2019-04-16 20:00:00 21 10 Sudeste 27 Sudeste 0 937.4 -1 32
2019-04-16 19:00:00 22.2 9 Sudeste 21 Sudeste 0 937.5 -1.4 26
2019-04-16 18:00:00 23.3 7 Sudeste 22 Sudeste 0 937.9 -1.7 25
2019-04-16 17:00:00 22.9 5 Sur 22 Sudoeste 0 938.4 -1.7 27
2019-04-16 16:00:00 22.1 4 Sudoeste 23 Oeste 0 938.9 -1.8 31
2019-04-16 15:00:00 20.5 3 Este 14 Este 0 939.6 -1.7 34
2019-04-16 14:00:00 19.1 3 Nordeste 13 Este 0 940.1 -1.2 37
2019-04-16 13:00:00 18 0 Calma 12 Este 0 940.7 -0.4 42
2019-04-16 12:00:00 15.5 2 Este 10 Nordeste 0 941.3 0.3 60
2019-04-16 11:00:00 12 0 Calma 9 Oeste 0 941.3 0.7 73
2019-04-16 10:00:00 10.6 3 Oeste 10 Oeste 0 941.1 1.4 81
2019-04-16 09:00:00 9.4 2 Oeste 13 Oeste 0 941 1.4 85
2019-04-16 08:00:00 9 0 Calma 11 Oeste 0 940.6 0.8 85
2019-04-16 07:00:00 9.3 2 Sudoeste 14 Oeste 0 939.7 0.5 84
2019-04-16 06:00:00 10.1 0 Calma 19 Oeste 0 939.6 0.4 79
2019-04-16 05:00:00 11.1 5 Oeste 16 Oeste 0 939.8 0.4 73
2019-04-16 04:00:00 12.2 2 Oeste 10 Oeste 0 939.2 0.2 70
2019-04-16 03:00:00 13.2 0 Calma 13 Oeste 0 939.2 0.7 71
2019-04-16 02:00:00 13.7 5 Oeste 23 Oeste 0 939.4 2 68
2019-04-16 01:00:00 14.4 8 Oeste 29 Oeste 0 939 2.7 61
2019-04-16 00:00:00 16.8 8 Oeste 28 Oeste 0 938.5 3.3 45
2019-04-15 23:00:00 18.6 9 Oeste 28 Oeste 0 937.4 3.1 30
2019-04-15 22:00:00 20.4 12 Sudoeste 35 Sudoeste 0 936.3 2 29
2019-04-15 21:00:00 21.4 9 Oeste 34 Oeste 0 935.2 0.8 30
2019-04-15 20:00:00 23.1 12 Oeste 36 Sudoeste 0 934.3 -0.2 27
2019-04-15 19:00:00 24.6 13 Oeste 42 Oeste 0 934.3 -0.6 24
2019-04-15 18:00:00 25.3 16 Oeste 45 Oeste 0 934.4 -0.7 25
2019-04-15 17:00:00 24.9 11 Oeste 30 Oeste 0 934.5 -1.4 26
2019-04-15 16:00:00 25.2 10 Oeste 30 Sudoeste 0 934.9 -1.4 28
2019-04-15 15:00:00 24.8 8 Sudeste 25 Sudeste 0 935.1 -1.5 34
2019-04-15 14:00:00 22.2 6 Sur 23 Sur 0 935.9 -1 37
2019-04-15 13:00:00 23 6 Sur 22 Sudoeste 0 936.3 -1.4 37
2019-04-15 12:00:00 19.6 4 Nordeste 16 Este 0 936.6 -0.8 62
2019-04-15 11:00:00 16.8 6 Nordeste 13 Este 0 936.9 -0.4 72
2019-04-15 10:00:00 13.8 0 Calma 6 Este 0 937.7 0.6 81
2019-04-15 09:00:00 12.4 0 Calma -- -- 0 937.4 0.4 86
2019-04-15 08:00:00 11.5 0 Calma 0 Calma 0 937.3 -0.3 87
2019-04-15 07:00:00 11.9 0 Calma -- -- 0 937.1 -0.8 85
2019-04-15 06:00:00 12.8 0 Calma -- -- 0 937 -1.4 80
2019-04-15 05:00:00 13.2 0 Calma -- -- 0 937.6 -1.3 77
2019-04-15 04:00:00 13.5 0 Calma -- -- 0 937.9 -1.2 73
2019-04-15 03:00:00 14.2 0 Calma 11 Sudoeste 0 938.4 -0.5 67
2019-04-15 02:00:00 14.6 0 Calma 8 Sur 0 938.9 -0.1 67
2019-04-15 01:00:00 15.2 2 Sudoeste 12 Noroeste 0 939.1 0.4 66
2019-04-15 00:00:00 16.4 4 Oeste 12 Sudoeste 0 938.9 1 62
2019-04-14 23:00:00 17.4 0 Calma 9 Oeste 0 939 1.6 56
2019-04-14 22:00:00 19 3 Oeste 9 Oeste 0 938.7 1.4 51
2019-04-14 21:00:00 20.5 3 Oeste 13 Oeste 0 937.9 0.4 44
2019-04-14 20:00:00 22.3 7 Oeste 24 Oeste 0 937.4 -0.3 39
2019-04-14 19:00:00 22.8 7 Oeste 24 Oeste 0 937.3 -1.1 37
2019-04-14 18:00:00 23.7 9 Oeste 23 Oeste 0 937.5 -1.5 35
2019-04-14 17:00:00 23.7 10 Oeste 24 Oeste 0 937.7 -1.7 34
2019-04-14 16:00:00 22.8 8 Oeste 23 Oeste 0 938.4 -1.6 34
2019-04-14 15:00:00 22.2 8 Oeste 24 Oeste 0 939 -1.5 35
2019-04-14 14:00:00 21.2 7 Oeste 22 Oeste 0 939.4 -1.1 36
2019-04-14 13:00:00 19.9 6 Oeste 26 Oeste 0 940 -0.4 43
2019-04-14 12:00:00 17.3 9 Oeste 22 Oeste 0 940.5 0.3 53
2019-04-14 11:00:00 14.8 8 Oeste 17 Oeste 0 940.5 0.5 60
2019-04-14 10:00:00 11 6 Oeste 14 Oeste 0 940.4 0.6 75
2019-04-14 09:00:00 8.2 0 Calma 7 Oeste 0 940.2 0.3 79
2019-04-14 08:00:00 7.6 0 Calma 2 Oeste 0 940 0 80
2019-04-14 07:00:00 8 0 Calma 7 Sudoeste 0 939.8 -0.2 76
2019-04-14 06:00:00 8 0 Calma -- -- 0 939.9 -0.1 73
2019-04-14 05:00:00 9 0 Calma 5 Sudoeste 0 940 -0.4 70
2019-04-14 04:00:00 9.8 0 Calma 9 Sudoeste 0 940 -0.7 66
2019-04-14 03:00:00 10.3 0 Calma 10 Oeste 0 940 -0.7 63
2019-04-14 02:00:00 11.2 4 Sudoeste 12 Sudoeste 0 940.4 0 58
2019-04-14 01:00:00 12.2 4 Oeste 18 Sudoeste 0 940.7 0.7 49
2019-04-14 00:00:00 12.1 6 Oeste 15 Sudoeste 0 940.7 1.2 44
2019-04-13 23:00:00 14 5 Oeste 15 Oeste 0 940.4 1.1 32
2019-04-13 22:00:00 15.3 5 Oeste 13 Oeste 0 940 1 28
2019-04-13 21:00:00 17.2 2 Oeste 17 Sudoeste 0 939.5 0.5 24
2019-04-13 20:00:00 19.1 5 Oeste 22 Oeste 0 939.3 0.1 21
2019-04-13 19:00:00 19.7 8 Oeste 25 Oeste 0 939 -0.5 20
2019-04-13 18:00:00 20.8 7 Oeste 27 Oeste 0 939 -1.1 20
2019-04-13 17:00:00 20.7 9 Oeste 24 Oeste 0 939.2 -1 22
2019-04-13 16:00:00 20.2 7 Noroeste 29 Oeste 0 939.5 -1.3 23
2019-04-13 15:00:00 19.6 8 Noroeste 28 Oeste 0 940.1 -0.9 25
2019-04-13 14:00:00 18.7 8 Oeste 27 Oeste 0 940.2 -1.1 29
2019-04-13 13:00:00 17.4 8 Oeste 27 Noroeste 0 940.8 -0.2 32
2019-04-13 12:00:00 15.5 7 Oeste 19 Oeste 0 941 0.3 39
2019-04-13 11:00:00 10.3 4 Oeste 12 Sudoeste 0 941.3 0.9 63
2019-04-13 10:00:00 7.6 4 Oeste 13 Oeste 0 941 1.3 66
2019-04-13 09:00:00 4.9 0 Calma -- -- 0 940.7 1.5 79
2019-04-13 08:00:00 3.9 0 Calma -- -- 0 940.4 1 78
2019-04-13 07:00:00 5.1 0 Calma 8 Sudoeste 0 939.7 0.3 70
2019-04-13 06:00:00 5.7 0 Calma 5 Sudoeste 0 939.2 -0.4 69
2019-04-13 05:00:00 6.4 0 Calma 6 Sudoeste 0 939.4 -0.4 65
2019-04-13 04:00:00 6.1 0 Calma 7 Sudoeste 0 939.4 -0.4 67
2019-04-13 03:00:00 7.8 0 Calma 5 Sudoeste 0 939.6 0.5 60
2019-04-13 02:00:00 8.2 0 Calma 6 Sudoeste 0 939.8 0.8 60
2019-04-13 01:00:00 7.8 0 Calma 13 Nordeste 0 939.8 1.3 57
2019-04-13 00:00:00 9.6 5 Oeste 16 Oeste 0 939.1 1 49
2019-04-12 23:00:00 11 8 Oeste 18 Oeste 0 939 1.2 44
2019-04-12 22:00:00 12.5 8 Oeste 19 Oeste 0 938.5 0.6 39
2019-04-12 21:00:00 13.9 7 Oeste 19 Oeste 0 938.1 0.1 36
2019-04-12 20:00:00 15.8 8 Oeste 28 Noroeste 0 937.8 -0.2 33
2019-04-12 19:00:00 16.5 11 Oeste 37 Oeste 0 937.9 -0.4 31
2019-04-12 18:00:00 17.5 8 Oeste 30 Oeste 0 938 -0.6 31
2019-04-12 17:00:00 17.2 12 Oeste 33 Oeste 0 938 -0.9 31
2019-04-12 16:00:00 17.2 10 Oeste 36 Oeste 0 938.3 -1.1 30
2019-04-12 15:00:00 16.4 10 Oeste 35 Oeste 0 938.6 -1.2 33
2019-04-12 14:00:00 15.4 9 Oeste 30 Oeste 0 938.9 -0.8 39
2019-04-12 13:00:00 13.6 7 Oeste 31 Oeste 0 939.4 -0.4 45
2019-04-12 12:00:00 11.1 8 Oeste 24 Oeste 0 939.8 0 56
2019-04-12 11:00:00 8.2 10 Oeste 22 Oeste 0 939.7 0.1 67
2019-04-12 10:00:00 6.2 7 Oeste 23 Oeste 0 939.8 0.8 75
2019-04-12 09:00:00 4.2 5 Oeste 22 Oeste 0 939.8 0.8 84
2019-04-12 08:00:00 2.8 2 Oeste 15 Oeste 0 939.6 0.5 86
2019-04-12 07:00:00 3 4 Oeste 15 Oeste 0 939 -0.2 83
2019-04-12 06:00:00 3.8 0 Calma 12 Oeste 0 939 -0.4 81
2019-04-12 05:00:00 4.4 2 Oeste 15 Oeste 0 939.1 -0.7 79
2019-04-12 04:00:00 4.7 0 Calma 8 Oeste 0 939.2 -0.3 78
2019-04-12 03:00:00 5.7 0 Calma -- -- 0 939.4 0.1 72
2019-04-12 02:00:00 6.7 0 Calma 9 Este 0 939.8 0.9 65
2019-04-12 01:00:00 7.8 0 Calma 10 Oeste 0 939.5 1 58
2019-04-12 00:00:00 8.4 0 Calma 13 Noroeste 0 939.3 1.4 52
2019-04-11 23:00:00 9.8 3 Oeste 16 Oeste 0 938.9 1.5 44
2019-04-11 22:00:00 11.7 5 Oeste 13 Oeste 0 938.5 1.1 37
2019-04-11 21:00:00 13.1 4 Oeste 20 Oeste 0 937.9 0.5 31
2019-04-11 20:00:00 14.8 6 Noroeste 29 Noroeste 0 937.4 0 28
2019-04-11 19:00:00 15.5 7 Noroeste 32 Oeste 0 937.4 -0.3 29
2019-04-11 18:00:00 16.3 8 Oeste 26 Oeste 0 937.4 -0.5 30
2019-04-11 17:00:00 16.2 12 Oeste 29 Oeste 0 937.4 -0.7 33
2019-04-11 16:00:00 15.7 6 Noroeste 26 Noroeste 0 937.7 -1 33
2019-04-11 15:00:00 15.1 7 Noroeste 28 Oeste 0 937.9 -1.2 36
2019-04-11 14:00:00 14.8 5 Noroeste 33 Oeste 0 938.1 -0.8 40
2019-04-11 13:00:00 12.4 9 Oeste 34 Oeste 0 938.7 -0.3 52
2019-04-11 12:00:00 10.3 7 Noroeste 22 Oeste 0 939.1 0.2 61
2019-04-11 11:00:00 8.1 8 Oeste 26 Oeste 0 938.9 0.6 73
2019-04-11 10:00:00 5.9 6 Oeste 21 Oeste 0 939 1.1 85
2019-04-11 09:00:00 3.9 6 Oeste 17 Oeste 0 938.9 1 93
2019-04-11 08:00:00 2.7 5 Oeste 13 Oeste 0 938.3 0.5 96
2019-04-11 07:00:00 3 3 Oeste 12 Oeste 0 937.9 0.4 95
2019-04-11 06:00:00 3.6 4 Oeste 14 Oeste 0 937.9 0.1 95
2019-04-11 05:00:00 4 3 Oeste 12 Oeste 0 937.8 0 94
2019-04-11 04:00:00 4.9 7 Oeste 17 Oeste 0 937.5 -0.2 93
2019-04-11 03:00:00 4.7 2 Oeste 11 Oeste 0 937.8 0.2 91
2019-04-11 02:00:00 5.7 0 Calma 15 Oeste 0 937.8 0.3 87
2019-04-11 01:00:00 5.9 0 Calma 13 Oeste 0 937.7 0.7 90
2019-04-11 00:00:00 6.1 6 Oeste 18 Oeste 0 937.6 1.4 88
2019-04-10 23:00:00 7 4 Oeste 19 Oeste 0 937.5 1.6 84
2019-04-10 22:00:00 7.2 4 Oeste 17 Sudoeste 0 937 1.9 82
2019-04-10 21:00:00 8.1 7 Oeste 21 Oeste 0 936.2 1.4 77
2019-04-10 20:00:00 9.6 7 Oeste 22 Oeste 0 935.9 1.4 64
2019-04-10 19:00:00 11.4 3 Noroeste 19 Oeste 0 935.1 0.2 50
2019-04-10 18:00:00 13.4 3 Norte 23 Noroeste 0 934.8 -0.1 46
2019-04-10 17:00:00 12.3 8 Oeste 27 Noroeste 0 934.5 -1 46
2019-04-10 16:00:00 10.2 12 Oeste 43 Sudoeste 0 934.9 -1.1 53
2019-04-10 15:00:00 13.4 6 Noroeste 36 Norte 0 934.9 -1.5 49
2019-04-10 14:00:00 11.4 10 Oeste 30 Oeste 0 935.5 -0.8 54
2019-04-10 13:00:00 10.7 10 Oeste 35 Oeste 0 936 -0.2 58
2019-04-10 12:00:00 9.4 8 Noroeste 31 Oeste 0 936.4 0.2 67
2019-04-10 11:00:00 8.7 8 Oeste 32 Oeste 0 936.3 0.7 75
2019-04-10 10:00:00 8.2 8 Oeste 25 Oeste 0 936.2 0.6 82
2019-04-10 09:00:00 7.2 6 Oeste 24 Oeste 0 936.2 0.9 89
2019-04-10 08:00:00 7.1 7 Oeste 22 Oeste 0 935.6 0 90
2019-04-10 07:00:00 7 10 Oeste 27 Oeste 0 935.6 -0.1 90
2019-04-10 06:00:00 7.3 9 Oeste 20 Oeste 0 935.3 -0.5 91
2019-04-10 05:00:00 7.1 5 Oeste 22 Oeste 0.1 935.6 -0.4 92
2019-04-10 04:00:00 7.5 6 Oeste 27 Oeste 0.8 935.7 -0.3 90
2019-04-10 03:00:00 6.9 4 Sudoeste 34 Oeste 1.4 935.8 -0.2 89
2019-04-10 02:00:00 8.2 11 Oeste 33 Oeste 0 936 0 82
2019-04-10 01:00:00 7.9 6 Oeste 17 Oeste 0 936 0.1 83
2019-04-10 00:00:00 8 4 Oeste 14 Oeste 0 936 0.3 84
2019-04-09 23:00:00 8.2 4 Oeste 17 Oeste 0.1 936 1.5 83
2019-04-09 22:00:00 8.2 8 Oeste 22 Oeste 0.5 935.9 1.6 83
2019-04-09 21:00:00 8.3 5 Noroeste 37 Oeste 0.1 935.7 1 72
2019-04-09 20:00:00 11.7 15 Oeste 44 Oeste 0 934.5 0 55
2019-04-09 19:00:00 11.2 12 Oeste 47 Oeste 0 934.3 -0.3 66
2019-04-09 18:00:00 11.3 12 Oeste 41 Sudoeste 0.2 934.7 -0.4 72
2019-04-09 17:00:00 13 18 Oeste 48 Oeste 0 934.5 -1.5 50
2019-04-09 16:00:00 13.9 15 Oeste 39 Oeste 0 934.6 -1.8 50
2019-04-09 15:00:00 12.2 18 Oeste 40 Noroeste 0 935.1 -1.7 50
2019-04-09 14:00:00 11.6 14 Oeste 41 Oeste 0 936 -1 54
2019-04-09 13:00:00 11.5 11 Oeste 36 Oeste 0 936.4 -0.7 53
2019-04-09 12:00:00 10.3 12 Oeste 40 Oeste 0.1 936.8 -0.3 61
2019-04-09 11:00:00 9.4 14 Oeste 38 Oeste 0 937 0.3 70
2019-04-09 10:00:00 8 12 Oeste 37 Oeste 0 937.1 0.8 80
2019-04-09 09:00:00 6.2 4 Oeste 28 Oeste 0 937.1 0.8 88
2019-04-09 08:00:00 5.9 10 Oeste 22 Oeste 0 936.7 0.7 89
2019-04-09 07:00:00 6.3 5 Oeste 18 Oeste 0 936.3 0.3 87
2019-04-09 06:00:00 7.3 4 Oeste 15 Oeste 0 936.3 0.1 86
2019-04-09 05:00:00 7.7 10 Oeste 19 Oeste 0 936 0 84
2019-04-09 04:00:00 7.6 10 Oeste 20 Oeste 0 936 0 84
2019-04-09 03:00:00 8.4 6 Oeste 15 Oeste 0 936.2 0.7 90
2019-04-09 02:00:00 9.3 4 Sudoeste 16 Sudoeste 0 936 0 88
2019-04-09 01:00:00 9.6 6 Sudoeste 20 Sudoeste 0 936 0.6 88
2019-04-09 00:00:00 9.1 3 Sudoeste 14 Sur 0 935.5 0.5 92
2019-04-08 23:00:00 9.3 3 Sur 24 Noroeste 2.8 936 0.8 90
2019-04-08 22:00:00 11.3 3 Sudoeste 21 Sudoeste 0 935.4 0.1 83
2019-04-08 21:00:00 11.6 0 Calma 18 Sur 0 935 -0.4 86
2019-04-08 20:00:00 11.9 6 Sudoeste 19 Oeste 0 935.2 0 88
2019-04-08 19:00:00 11.8 8 Sudoeste 21 Oeste 0.4 935.3 -0.3 87
2019-04-08 18:00:00 10.9 9 Oeste 47 Noroeste 3.9 935.4 -0.3 86
2019-04-08 17:00:00 13.9 5 Oeste 25 Sudoeste 0 935.2 -0.9 70
2019-04-08 16:00:00 12.6 8 Oeste 27 Oeste 1.2 935.6 -0.7 81
2019-04-08 15:00:00 15.5 8 Oeste 29 Oeste 0 935.7 -1 53
2019-04-08 14:00:00 14.5 7 Oeste 31 Oeste 0.1 936.1 -0.3 57
2019-04-08 13:00:00 14.2 14 Oeste 38 Oeste 0 936.3 -0.2 57
2019-04-08 12:00:00 12.9 17 Oeste 33 Oeste 0 936.7 0.2 61
2019-04-08 11:00:00 12 14 Oeste 31 Oeste 0 936.4 0.4 73
2019-04-08 10:00:00 11.2 11 Oeste 28 Oeste 0 936.5 0.9 80
2019-04-08 09:00:00 10.1 7 Sudoeste 19 Sudoeste 0 936.5 0.8 90
2019-04-08 08:00:00 9.4 4 Oeste 14 Sudoeste 0.1 936 0.3 91
2019-04-08 07:00:00 9.6 4 Sudoeste 16 Sudoeste 0 935.6 -0.5 89
2019-04-08 06:00:00 9.4 4 Sudoeste 16 Sudoeste 0 935.7 -0.7 91
2019-04-08 05:00:00 9.6 6 Sudoeste 16 Sur 0 935.7 -1.1 92
2019-04-08 04:00:00 9 2 Sudoeste 12 Sudoeste 0 936.1 -1.1 93
2019-04-08 03:00:00 8.9 0 Calma 11 Sudoeste 0 936.4 -1.2 91
2019-04-08 02:00:00 8.7 0 Calma 7 Sudoeste 0 936.8 -0.5 89
2019-04-08 01:00:00 8.8 0 Calma 8 Oeste 0 937.2 0.2 86
2019-04-08 00:00:00 8.8 2 Sudoeste 14 Sudoeste 0 937.6 1.2 85
2019-04-07 23:00:00 9.5 7 Oeste 23 Oeste 0 937.3 1.3 74
2019-04-07 22:00:00 10.5 7 Oeste 18 Oeste 0 937 2.1 63
2019-04-07 21:00:00 10.9 8 Oeste 25 Oeste 0 936.4 1.8 54
2019-04-07 20:00:00 11.5 10 Oeste 32 Oeste 0 936 1.6 49
2019-04-07 19:00:00 12.7 16 Oeste 46 Oeste 0 934.9 0.6 45
2019-04-07 18:00:00 13.4 15 Oeste 35 Oeste 0 934.6 0.2 42
2019-04-07 17:00:00 12.7 9 Oeste 36 Oeste 0 934.4 0.2 44
2019-04-07 16:00:00 12.8 12 Oeste 46 Oeste 0 934.3 -0.1 46
2019-04-07 15:00:00 12.2 13 Oeste 43 Sudoeste 0 934.4 0.6 47
2019-04-07 14:00:00 11.6 14 Oeste 35 Oeste 0 934.2 1.3 47
2019-04-07 13:00:00 10.5 12 Oeste 37 Oeste 0 934.4 1.8 54
2019-04-07 12:00:00 9.1 15 Oeste 38 Oeste 0 933.8 2.1 62
2019-04-07 11:00:00 7.9 13 Oeste 50 Oeste 0 932.9 2 71
2019-04-07 10:00:00 6.6 13 Oeste 39 Oeste 0 932.6 2.2 80
2019-04-07 09:00:00 5.5 8 Oeste 36 Oeste 0 931.7 1.9 93
2019-04-07 08:00:00 4.9 8 Oeste 24 Oeste 0 930.9 1.3 93
2019-04-07 07:00:00 5 6 Oeste 20 Oeste 0.1 930.4 0.8 94
2019-04-07 06:00:00 4.6 8 Oeste 37 Oeste 0.7 929.8 0.4 90
2019-04-07 05:00:00 5.2 14 Oeste 35 Oeste 0 929.6 0 82
2019-04-07 04:00:00 5.2 9 Oeste 22 Oeste 0 929.6 -0.2 82
2019-04-07 03:00:00 4.8 9 Oeste 21 Oeste 0 929.4 -0.4 82
2019-04-07 02:00:00 5.1 8 Oeste 28 Oeste 0 929.6 0.2 80
2019-04-07 01:00:00 5.3 9 Oeste 25 Oeste 0 929.8 1.1 78
2019-04-07 00:00:00 5.9 12 Oeste 27 Oeste 0 929.8 1.5 76
2019-04-06 23:00:00 5.6 9 Oeste 27 Oeste 0 929.4 1.6 80
2019-04-06 22:00:00 6 7 Sudoeste 32 Sudoeste 0 928.7 1 77
2019-04-06 21:00:00 6.5 10 Oeste 30 Sudoeste 0.1 928.3 1.8 76
2019-04-06 20:00:00 7.7 9 Oeste 33 Oeste 0 927.8 0.7 66
2019-04-06 19:00:00 7.4 18 Oeste 40 Sudoeste 0 927.7 -0.1 66
2019-04-06 18:00:00 9.3 15 Sudoeste 37 Sudoeste 0 926.5 -1.1 64
2019-04-06 17:00:00 8.4 9 Sudoeste 32 Sudoeste 0 927.1 -0.4 73
2019-04-06 16:00:00 6.8 9 Sudoeste 64 Oeste 0.5 927.8 0.3 85
2019-04-06 15:00:00 9.9 24 Oeste 49 Oeste 0.9 927.6 0.1 60
2019-04-06 14:00:00 9.3 12 Oeste 54 Oeste 0 927.5 -0.1 67
2019-04-06 13:00:00 9.3 13 Oeste 61 Oeste 0 927.5 0 58
2019-04-06 12:00:00 8.8 20 Oeste 47 Oeste 0 927.5 0 63
2019-04-06 11:00:00 7.2 21 Oeste 45 Oeste 0 927.6 0.5 74
2019-04-06 10:00:00 6.3 17 Oeste 37 Oeste 0 927.5 1.3 77
2019-04-06 09:00:00 5 11 Oeste 27 Oeste 0 927.5 1.9 81
2019-04-06 08:00:00 4.7 11 Oeste 28 Oeste 0 927.1 1.7 81
2019-04-06 07:00:00 4.2 9 Oeste 26 Oeste 0 926.2 0.4 83
2019-04-06 06:00:00 4.3 10 Oeste 25 Oeste 0 925.6 0 84
2019-04-06 05:00:00 4.5 9 Oeste 22 Oeste 0 925.4 -0.8 86
2019-04-06 04:00:00 4.2 6 Oeste 24 Oeste 0 925.8 -0.3 86
2019-04-06 03:00:00 4.4 14 Oeste 32 Oeste 0 925.6 -0.4 86
2019-04-06 02:00:00 4.5 9 Oeste 39 Oeste 0.1 926.2 0.5 85
2019-04-06 01:00:00 5.1 6 Oeste 17 Sudoeste 0 926.1 1.2 74
2019-04-06 00:00:00 4.8 6 Sudoeste 14 Sudoeste 0 926 2.1 78
2019-04-05 23:00:00 4.7 5 Oeste 18 Oeste 0 925.7 2.3 87
2019-04-05 22:00:00 5.1 11 Oeste 27 Oeste 0 924.9 2.5 86
2019-04-05 21:00:00 5.4 9 Oeste 26 Oeste 0 923.9 1.4 85
2019-04-05 20:00:00 5.5 10 Sudoeste 61 Oeste 0.9 923.4 0.2 79
2019-04-05 19:00:00 8.2 10 Oeste 28 Oeste 0 922.4 -0.4 75
2019-04-05 18:00:00 6.2 8 Sudoeste 54 Sudoeste 0.9 922.5 -1.4 86
2019-04-05 17:00:00 9.4 14 Oeste 28 Oeste 0 923.2 -1.1 60
2019-04-05 16:00:00 10.2 4 Sudoeste 40 Sur 0 922.8 -1.1 55
2019-04-05 15:00:00 8.9 11 Sudoeste 36 Sudoeste 0 923.9 -0.6 61
2019-04-05 14:00:00 9.4 11 Oeste 33 Oeste 0.3 924.3 -0.1 67
2019-04-05 13:00:00 11 10 Oeste 31 Oeste 0 923.9 -0.8 55
2019-04-05 12:00:00 11.4 11 Oeste 25 Oeste 0 924.5 -0.3 53
2019-04-05 11:00:00 10 7 Sudoeste 23 Sudoeste 0 924.4 -0.6 56
2019-04-05 10:00:00 8.5 7 Oeste 21 Oeste 0 924.7 -0.2 61
2019-04-05 09:00:00 7.6 6 Sudoeste 26 Oeste 0 924.8 0 67
2019-04-05 08:00:00 7.2 8 Oeste 21 Sudoeste 0 925 0.3 67
2019-04-05 07:00:00 7.3 6 Sudoeste 22 Sur 0 924.9 0 67
2019-04-05 06:00:00 7.6 5 Sudoeste 22 Oeste 0 924.8 -0.4 64
2019-04-05 05:00:00 7.3 3 Sudoeste 14 Sudoeste 0 924.7 -0.4 76
2019-04-05 04:00:00 7.1 4 Sur 17 Sur 0 924.9 -0.3 89
2019-04-05 03:00:00 7.5 5 Sur 23 Sur 0 925.2 0 87
2019-04-05 02:00:00 7.7 6 Sur 22 Sur 0 925.1 -0.2 86
2019-04-05 01:00:00 8.1 5 Sur 20 Sudoeste 0 925.2 -0.2 82
2019-04-05 00:00:00 9 6 Sur 23 Sudeste 0 925.2 0.8 77
2019-04-04 23:00:00 9.7 4 Sudeste 22 Sur 0 925.3 0.9 73
2019-04-04 22:00:00 10.7 6 Sudeste 22 Sudeste 0 925.4 0.7 64
2019-04-04 21:00:00 11.9 0 Calma 6 Nordeste 0 924.4 -0.6 37
2019-04-04 20:00:00 13.7 0 Calma 10 Sudeste 0 924.4 -0.8 32
2019-04-04 19:00:00 14.1 3 Sudoeste 10 Nordeste 0 924.7 -1.4 30
2019-04-04 18:00:00 14.6 3 Sudoeste 14 Oeste 0 925 -1.9 29
2019-04-04 17:00:00 14.5 3 Noroeste 16 Oeste 0 925.2 -2.3 29
2019-04-04 16:00:00 13.7 8 Oeste 18 Noroeste 0 926.1 -1.8 30
2019-04-04 15:00:00 12.7 3 Oeste 18 Sudoeste 0 926.9 -1.2 31
2019-04-04 14:00:00 12 7 Sudoeste 19 Sudoeste 0 927.5 -0.6 33
2019-04-04 13:00:00 10.9 3 Oeste 17 Sudoeste 0 927.9 -0.1 33
2019-04-04 12:00:00 9 4 Noroeste 13 Oeste 0 928.1 0.5 39
2019-04-04 11:00:00 7.1 2 Noroeste 16 Oeste 0 928.1 1.3 45
2019-04-04 10:00:00 5.7 3 Noroeste 11 Oeste 0 928 1.5 58
2019-04-04 09:00:00 3 3 Oeste 9 Oeste 0 927.6 1.4 73
2019-04-04 08:00:00 2.7 2 Oeste 12 Oeste 0 926.8 1.1 72
2019-04-04 07:00:00 3.3 2 Oeste 6 Oeste 0 926.5 0.9 70
2019-04-04 06:00:00 4 2 Oeste 5 Oeste 0 926.2 0.5 67
2019-04-04 05:00:00 5.1 3 Este 12 Norte 0 925.7 -0.3 60
2019-04-04 04:00:00 6.9 2 Noroeste 14 Oeste 0 925.6 -0.8 54
2019-04-04 03:00:00 7.9 3 Noroeste 15 Oeste 0 925.7 -0.8 54
2019-04-04 02:00:00 8.1 4 Oeste 13 Oeste 0 926 -0.4 57
2019-04-04 01:00:00 8.5 5 Oeste 13 Oeste 0 926.4 1 57
2019-04-04 00:00:00 8.8 3 Oeste 11 Oeste 0 926.5 2.1 56
2019-04-03 23:00:00 10.7 2 Oeste 19 Oeste 0 926.4 2.1 46
2019-04-03 22:00:00 12.2 4 Noroeste 25 Oeste 0 925.4 1.1 41
2019-04-03 21:00:00 14 11 Oeste 35 Oeste 0 924.4 -0.2 32
2019-04-03 20:00:00 15.7 14 Oeste 32 Noroeste 0 924.3 -1.1 30
2019-04-03 19:00:00 17.8 13 Oeste 43 Oeste 0 924.3 -1.9 27
2019-04-03 18:00:00 18.7 16 Oeste 43 Oeste 0 924.6 -2.4 30
2019-04-03 17:00:00 18.5 17 Oeste 41 Oeste 0 925.4 -2.7 30
2019-04-03 16:00:00 18.5 16 Oeste 42 Oeste 0 926.2 -2.7 31
2019-04-03 15:00:00 18.3 16 Oeste 42 Oeste 0 927 -3.2 34
2019-04-03 14:00:00 16.7 14 Oeste 39 Oeste 0 928.1 -2.7 40
2019-04-03 13:00:00 16.1 10 Oeste 31 Oeste 0 928.9 -2.4 48
2019-04-03 12:00:00 14.9 12 Oeste 30 Oeste 0.1 930.2 -1.5 56
2019-04-03 11:00:00 13.1 7 Oeste 25 Sudoeste 0 930.8 -0.9 67
2019-04-03 10:00:00 11.5 8 Sudoeste 22 Oeste 0 931.3 -0.8 77
2019-04-03 09:00:00 9.6 9 Sudoeste 22 Sudoeste 0 931.7 -0.6 84
2019-04-03 08:00:00 8.4 6 Oeste 21 Oeste 0 931.7 -1.4 89
2019-04-03 07:00:00 8.4 4 Sudoeste 12 Sudoeste 0 932.1 -1.7 90
2019-04-03 06:00:00 8 3 Oeste 12 Oeste 0 932.3 -2.1 93
2019-04-03 05:00:00 7.9 0 Calma 6 Sur 0 933.1 -1.9 94
2019-04-03 04:00:00 8 0 Calma 6 Sudoeste 0 933.8 -1.9 93
2019-04-03 03:00:00 8.9 0 Calma 8 Sudoeste 0 934.4 -1.4 90
2019-04-03 02:00:00 9.1 2 Sudoeste 9 Sur 0 935 -1.1 89
2019-04-03 01:00:00 9.3 3 Sudoeste 14 Sudoeste 0 935.7 -0.3 89
2019-04-03 00:00:00 10.3 4 Sudoeste 13 Sur 0 935.8 0.4 87
2019-04-02 23:00:00 10.9 4 Sudoeste 10 Sur 0 936.1 0.2 88
2019-04-02 22:00:00 10.9 3 Sudoeste 8 Sur 0.3 936 0.8 92
2019-04-02 21:00:00 11.3 3 Oeste 36 Oeste 4.8 935.4 0.2 82
2019-04-02 20:00:00 12.2 6 Oeste 29 Oeste 4.5 935.9 0.3 68
2019-04-02 19:00:00 15.4 3 Noroeste 21 Oeste 0 935.2 -1.1 47
2019-04-02 18:00:00 15.7 9 Oeste 20 Oeste 0 935.2 -2.1 47
2019-04-02 17:00:00 16.7 6 Oeste 18 Oeste 0 935.6 -2.1 50
2019-04-02 16:00:00 15.9 5 Oeste 15 Sudoeste 0.2 936.3 -1.8 51
2019-04-02 15:00:00 13.5 5 Sudoeste 21 Sudoeste 0 937.3 -1.4 68
2019-04-02 14:00:00 14 6 Oeste 20 Oeste 0 937.7 -0.7 64
2019-04-02 13:00:00 14.7 6 Oeste 19 Oeste 0 938.1 -0.2 63
2019-04-02 12:00:00 12.9 6 Oeste 15 Oeste 0 938.7 0.4 77
2019-04-02 11:00:00 9.8 2 Sur 6 Sudoeste 0 938.4 0.6 97
2019-04-02 10:00:00 7.5 0 Calma 3 Nordeste 0 938.3 0.9 97
2019-04-02 09:00:00 6.8 2 Nordeste 5 Este 0 938.3 0.7 96
2019-04-02 08:00:00 7.2 0 Calma 5 Nordeste 0 937.8 0.1 97
2019-04-02 07:00:00 7.6 0 Calma 4 Este 0.1 937.4 -0.3 97
2019-04-02 06:00:00 8.1 0 Calma 0 Calma 0 937.6 -0.5 96
2019-04-02 05:00:00 8.7 0 Calma 0 Calma 0 937.7 -0.7 96
2019-04-02 04:00:00 9.1 0 Calma 8 Sudoeste 0 937.7 -0.7 96
2019-04-02 03:00:00 9.4 4 Sudoeste 14 Sur 0 938.1 -0.4 96
2019-04-02 02:00:00 9.2 0 Calma 9 Sur 0 938.4 0.1 94
2019-04-02 01:00:00 9.5 2 Sudoeste 11 Oeste 0.8 938.4 0.7 93
2019-04-02 00:00:00 9.6 3 Sudoeste 14 Sudoeste 0 938.5 1.5 89
2019-04-01 23:00:00 9.8 0 Calma 10 Sudoeste 0 938.3 2.1 93
2019-04-01 22:00:00 10 2 Sur 9 Sudoeste 0 937.7 1.7 93
2019-04-01 21:00:00 10.4 3 Este 7 Nordeste 0 937 0.6 91
2019-04-01 20:00:00 11.2 4 Este 9 Este 0.1 936.2 0.4 92
2019-04-01 19:00:00 11.3 2 Este 6 Este 0.4 936 0.1 91
2019-04-01 18:00:00 10.6 2 Sur 23 Sudoeste 11.1 936.4 0.4 85
2019-04-01 17:00:00 14.2 3 Este 12 Este 0 935.8 -0.7 63
2019-04-01 16:00:00 13.8 4 Nordeste 15 Nordeste 0 935.9 -1.2 68
2019-04-01 15:00:00 14.4 2 Noroeste 12 Nordeste 0 936 -1 63
2019-04-01 14:00:00 14.4 3 Nordeste 12 Nordeste 0 936.5 -0.3 67
2019-04-01 13:00:00 12.9 0 Calma 13 Este 0 937.1 0.9 78
2019-04-01 12:00:00 11.6 6 Este 13 Este 0 937 1.1 93
2019-04-01 11:00:00 10 0 Calma 7 Nordeste 0 936.8 1.5 96
2019-04-01 10:00:00 9.2 0 Calma 4 Este 0 936.2 1.2 96
2019-04-01 09:00:00 8.5 0 Calma 6 Este 0 935.9 0.9 96
2019-04-01 08:00:00 8.5 3 Este 7 Nordeste 0.1 935.3 0.4 97
2019-04-01 07:00:00 8.7 0 Calma 4 Este 0.1 935 -0.1 97
2019-04-01 06:00:00 8.7 0 Calma 5 Este 0.4 935 -0.1 96
2019-04-01 05:00:00 8.6 0 Calma 5 Este 0.5 934.9 -0.4 96
2019-04-01 04:00:00 8.7 0 Calma 6 Nordeste 0.2 935.1 -0.3 96
2019-04-01 03:00:00 8.6 3 Nordeste 8 Este 0 935.1 -0.1 96
2019-04-01 02:00:00 8.5 3 Nordeste 10 Nordeste 0 935.3 0.1 96
2019-04-01 01:00:00 8.5 3 Nordeste 12 Este 0 935.4 0.7 96
2019-04-01 00:00:00 8.5 4 Nordeste 21 Este 0 935.2 1.1 96
2019-03-31 23:00:00 8.5 6 Este 18 Nordeste 0 935.2 1.5 96
2019-03-31 22:00:00 8.6 6 Nordeste 15 Este 0 934.7 1 97
2019-03-31 21:00:00 8.7 7 Este 27 Este 0 934.1 0.2 97
2019-03-31 20:00:00 8.9 8 Nordeste 21 Este 0 933.7 -0.4 97
2019-03-31 19:00:00 9 6 Nordeste 17 Este 0.1 933.7 -0.7 98
2019-03-31 18:00:00 8.8 4 Nordeste 18 Norte 0.2 933.9 -1.2 98
2019-03-31 17:00:00 8.5 5 Nordeste 18 Nordeste 0.6 934.1 -1.6 98
2019-03-31 16:00:00 8.6 4 Nordeste 16 Este 0.5 934.4 -1.8 98
2019-03-31 15:00:00 8.2 0 Calma 12 Nordeste 1 935.1 -1.2 98
2019-03-31 14:00:00 7.7 4 Nordeste 14 Nordeste 2.1 935.7 -0.9 98
2019-03-31 13:00:00 7 5 Nordeste 15 Este 1.8 936.2 -0.6 98
2019-03-31 12:00:00 6.4 5 Nordeste 16 Este 2.8 936.3 -0.4 98
2019-03-31 11:00:00 6.3 5 Nordeste 13 Nordeste 1.8 936.6 0 98
2019-03-31 10:00:00 6.5 2 Nordeste 15 Nordeste 3 936.8 0.2 98
2019-03-31 09:00:00 6.6 5 Nordeste 18 Este 2.1 936.7 -0.4 98
2019-03-31 08:00:00 6.6 6 Este 21 Este 1.3 936.6 -0.8 98
2019-03-31 07:00:00 6.7 9 Nordeste 22 Este 1.2 936.6 -1.8 97
2019-03-31 06:00:00 7.2 0 Calma 19 Este 0.5 937.1 -2.1 89
2019-03-31 05:00:00 7.6 10 Este 23 Este 0 937.4 -1.8 73
2019-03-31 03:00:00 8.1 4 Sudeste 18 Sudeste 0 939.2 -0.4 67
2019-03-31 01:00:00 7.6 3 Este 10 Este 0 939.2 -0.7 69
2019-03-31 00:00:00 7.7 0 Calma 13 Este 0 939.4 -0.4 81
2019-03-30 23:00:00 8.6 5 Este 18 Este 0 939.6 0.4 80
2019-03-30 22:00:00 10.3 8 Este 20 Este 0 939.9 1.1 76
2019-03-30 21:00:00 11.3 6 Este 21 Sudeste 0 939.8 1.6 71
2019-03-30 20:00:00 13.3 8 Este 23 Sudeste 0 939.2 1 54
2019-03-30 19:00:00 15.1 6 Sudeste 30 Sudoeste 0 938.8 0.4 45
2019-03-30 18:00:00 16.9 6 Este 30 Nordeste 0 938.2 -1.2 39
2019-03-30 17:00:00 18.6 9 Este 25 Este 0 938.2 -2.1 36
2019-03-30 16:00:00 19 9 Este 26 Este 0 938.4 -2.8 36
2019-03-30 15:00:00 18.2 8 Este 26 Nordeste 0 939.4 -3.2 36
2019-03-30 14:00:00 17.7 7 Sudeste 24 Nordeste 0 940.3 -3.1 37
2019-03-30 13:00:00 16.2 5 Sudeste 26 Este 0 941.2 -2.4 42
2019-03-30 12:00:00 13.7 8 Este 23 Este 0 942.6 -1 50
2019-03-30 11:00:00 11.6 5 Sudeste 23 Este 0 943.4 -0.2 60
2019-03-30 10:00:00 9.2 8 Este 25 Sudeste 0 943.6 0 72
2019-03-30 09:00:00 6 6 Este 12 Este 0 943.6 0.3 95
2019-03-30 08:00:00 4.7 2 Este 15 Sudeste 0 943.6 -0.2 96
2019-03-30 07:00:00 4.2 3 Este 10 Sudeste 0 943.6 -0.6 95
2019-03-30 06:00:00 4.1 3 Este 9 Este 0 943.3 -1.4 94
2019-03-30 05:00:00 4.4 3 Este 12 Nordeste 0 943.8 -1.3 93
2019-03-30 04:00:00 4.6 0 Calma 16 Este 0 944.2 -1.3 92
2019-03-30 03:00:00 5.3 0 Calma 12 Este 0 944.7 -1.1 87
2019-03-30 02:00:00 5.2 3 Este 9 Este 0 945.1 -1 80
2019-03-30 01:00:00 5.7 4 Nordeste 11 Este 0 945.5 -0.3 74
2019-03-30 00:00:00 7.2 3 Este 18 Sudeste 0 945.8 0.6 67
2019-03-29 23:00:00 8.3 9 Sudeste 23 Sudeste 0 946.1 1.7 63
2019-03-29 22:00:00 9.4 8 Sudeste 27 Sudeste 0 945.8 2 58
2019-03-29 21:00:00 11.1 10 Sudeste 25 Este 0 945.2 1.8 59
2019-03-29 20:00:00 12.4 5 Sudeste 18 Sudeste 0 944.4 0.7 52
2019-03-29 19:00:00 13.7 7 Sur 23 Sudeste 0 943.8 -0.2 43
2019-03-29 18:00:00 15 8 Sudeste 27 Sudeste 0 943.4 -1.2 42
2019-03-29 17:00:00 15.4 5 Sudeste 30 Sudoeste 0 943.7 -1.4 41
2019-03-29 16:00:00 15.3 8 Sudeste 24 Sur 0 944 -2 43
2019-03-29 15:00:00 14.5 6 Sudeste 23 Este 0 944.6 -2 44
2019-03-29 14:00:00 15.3 8 Este 28 Sudeste 0 945.1 -2.1 44
2019-03-29 13:00:00 14.8 9 Sur 30 Sudoeste 0 946 -1.5 45
2019-03-29 12:00:00 13.7 9 Sudeste 24 Sudeste 0 946.6 -0.7 47
2019-03-29 11:00:00 12 6 Sudeste 25 Sudeste 0 947.2 0.1 55
2019-03-29 10:00:00 8.3 6 Sudeste 19 Este 0 947.5 0.7 68
2019-03-29 09:00:00 5.7 6 Sudeste 13 Sudeste 0 947.3 0.6 78
2019-03-29 08:00:00 1.3 0 Calma 3 Este 0 947.1 0.3 80
2019-03-29 07:00:00 0.4 0 Calma 4 Nordeste 0 946.8 0.1 76
2019-03-29 06:00:00 1.1 0 Calma 4 Este 0 946.7 -0.2 74
2019-03-29 05:00:00 1.6 3 Nordeste 6 Este 0 946.8 -0.5 71
2019-03-29 04:00:00 2.5 2 Nordeste 8 Este 0 946.7 -0.5 68
2019-03-29 03:00:00 4 4 Este 10 Este 0 946.9 -0.8 64
2019-03-29 02:00:00 5.9 4 Este 12 Sudeste 0 947.3 -0.1 63
2019-03-29 01:00:00 6.7 3 Sudeste 10 Sudeste 0 947.2 0 60
2019-03-29 00:00:00 7 4 Este 10 Este 0 947.7 1 54
2019-03-28 23:00:00 8.3 5 Este 18 Sur 0 947.4 1.3 47
2019-03-28 22:00:00 9.9 5 Sudeste 21 Sudeste 0 947.2 1.5 41
2019-03-28 21:00:00 11.3 8 Sudeste 24 Sudeste 0 946.7 1.6 36
2019-03-28 20:00:00 12.7 6 Sur 24 Sur 0 946.1 1 30
2019-03-28 19:00:00 14.7 6 Sudeste 28 Sudeste 0 945.7 0.4 27
2019-03-28 18:00:00 17.2 6 Sudeste 24 Sudeste 0 945.1 -0.6 26
2019-03-28 17:00:00 18.6 6 Este 27 Nordeste 0 945.1 -1.3 26
2019-03-28 16:00:00 18.7 6 Este 28 Este 0 945.3 -1.7 26
2019-03-28 15:00:00 19.3 8 Este 26 Sudeste 0 945.7 -2.1 27
2019-03-28 14:00:00 17.9 4 Este 28 Este 0 946.4 -2 27
2019-03-28 13:00:00 17.2 8 Sudeste 30 Este 0 947 -1.6 29
2019-03-28 12:00:00 14.5 3 Norte 14 Nordeste 0 947.8 -0.7 35
2019-03-28 11:00:00 11.4 3 Nordeste 11 Este 0 948.4 0 44
2019-03-28 10:00:00 7 4 Nordeste 9 Este 0 948.6 0.3 60
2019-03-28 09:00:00 2.7 0 Calma 4 Nordeste 0 948.5 0.7 75
2019-03-28 08:00:00 0 2 Nordeste 4 Nordeste 0 948.4 1 78
2019-03-28 07:00:00 -0.5 0 Calma 4 Nordeste 0 948.3 1 77
2019-03-28 06:00:00 0.5 0 Calma 5 Este 0 947.8 0.5 72
2019-03-28 05:00:00 1.5 0 Calma 6 Este 0 947.4 0 71
2019-03-28 04:00:00 2.2 3 Este 6 Este 0 947.3 -0.2 67
2019-03-28 03:00:00 4.3 2 Nordeste 8 Sudeste 0 947.3 0 60
2019-03-28 02:00:00 6.1 2 Sudeste 11 Sudeste 0 947.4 0.4 57
2019-03-28 01:00:00 6.4 4 Sudeste 14 Sudeste 0 947.5 0.9 56
2019-03-28 00:00:00 7.8 3 Sudeste 12 Sudeste 0 947.3 2 52
2019-03-27 23:00:00 8.1 3 Este 10 Este 0 947 3 46
2019-03-27 22:00:00 9.4 4 Este 16 Sudeste 0 946.6 2.8 40
2019-03-27 21:00:00 11 4 Este 22 Sudeste 0 945.3 1.9 29
2019-03-27 20:00:00 12.8 10 Sudeste 21 Sudeste 0 944 0.8 27
2019-03-27 19:00:00 14.5 7 Este 23 Sudeste 0 943.8 0.4 24
2019-03-27 18:00:00 16.2 8 Este 27 Este 0 943.4 -0.3 25
2019-03-27 17:00:00 17.7 9 Nordeste 31 Nordeste 0 943.2 -1.1 25
2019-03-27 16:00:00 17.2 7 Nordeste 22 Este 0 943.4 -1.4 26
2019-03-27 15:00:00 17.4 4 Nordeste 18 Nordeste 0 943.7 -1.4 27
2019-03-27 14:00:00 16.9 6 Nordeste 17 Este 0 944.3 -1 32
2019-03-27 13:00:00 15.7 4 Nordeste 20 Nordeste 0 944.8 -0.5 36
2019-03-27 12:00:00 13.7 5 Nordeste 19 Este 0 945.1 0.1 39
2019-03-27 11:00:00 10.1 3 Nordeste 10 Nordeste 0 945.3 0.3 57
2019-03-27 10:00:00 6.2 0 Calma 7 Este 0 945.3 0.9 73
2019-03-27 09:00:00 3.7 0 Calma 7 Nordeste 0 945 0.9 85
2019-03-27 08:00:00 1.1 0 Calma 0 Calma 0 945 1.1 91
2019-03-27 07:00:00 1 0 Calma -- -- 0 944.4 0.3 89
2019-03-27 06:00:00 2.2 0 Calma 4 Este 0 944.1 -0.3 88
2019-03-27 05:00:00 3.6 0 Calma 7 Este 0 943.9 -0.8 88
2019-03-27 04:00:00 4.4 0 Calma 8 Sudeste 0 944.1 -0.8 88
2019-03-27 03:00:00 4.8 0 Calma 5 Sudeste 0 944.4 -0.1 85
2019-03-27 02:00:00 5 0 Calma 9 Este 0 944.7 0.6 82
2019-03-27 01:00:00 5.5 0 Calma 15 Este 0 944.9 1.8 81
2019-03-27 00:00:00 6.3 5 Este 18 Este 0 944.5 2.3 77